Terminal Aerodrome Forecast
Issued by NWS

Home | Current Version | Previous Version | Text Only | Print | Product List | Glossary On
Versions: 1 2 3 4 5 6 7 8 9 10 11 12 13
000
FTUS46 KLOX 282300
TAFVNY
TAF
KVNY 282333Z 2900/2924 16010KT P6SM FEW150
     FM290400 VRB03KT P6SM SCT150
     FM291800 14007KT P6SM SKC
     FM292200 16012KT P6SM SKC=

USA.gov is the U.S. government's official web portal to all federal, state and local government web resources and services.